sensor_id;sensor_type;location;lat;lon;timestamp;P1;durP1;ratioP1;P2;durP2;ratioP2
19038;SDS011;9652;49.014;12.052;2022-08-03T00:00:58;1.50;;;1.40;;
19038;SDS011;9652;49.014;12.052;2022-08-03T00:03:25;1.87;;;1.60;;
19038;SDS011;9652;49.014;12.052;2022-08-03T00:05:52;1.90;;;1.70;;
19038;SDS011;9652;49.014;12.052;2022-08-03T00:08:19;1.67;;;1.50;;
19038;SDS011;9652;49.014;12.052;2022-08-03T00:10:46;1.67;;;1.47;;
19038;SDS011;9652;49.014;12.052;2022-08-03T00:13:15;2.30;;;1.83;;
19038;SDS011;9652;49.014;12.052;2022-08-03T00:15:43;1.60;;;1.50;;
19038;SDS011;9652;49.014;12.052;2022-08-03T00:18:11;2.93;;;1.77;;
19038;SDS011;9652;49.014;12.052;2022-08-03T00:20:38;1.77;;;1.43;;
19038;SDS011;9652;49.014;12.052;2022-08-03T00:23:05;2.00;;;1.80;;
19038;SDS011;9652;49.014;12.052;2022-08-03T00:25:32;1.70;;;1.53;;
19038;SDS011;9652;49.014;12.052;2022-08-03T00:28:00;2.87;;;1.90;;
19038;SDS011;9652;49.014;12.052;2022-08-03T00:30:29;1.53;;;1.43;;
19038;SDS011;9652;49.014;12.052;2022-08-03T00:32:57;1.60;;;1.50;;
19038;SDS011;9652;49.014;12.052;2022-08-03T00:35:24;3.60;;;1.53;;
19038;SDS011;9652;49.014;12.052;2022-08-03T00:37:52;5.27;;;1.80;;
19038;SDS011;9652;49.014;12.052;2022-08-03T00:40:19;1.70;;;1.60;;
19038;SDS011;9652;49.014;12.052;2022-08-03T00:42:47;1.97;;;1.57;;
19038;SDS011;9652;49.014;12.052;2022-08-03T00:45:17;2.47;;;1.97;;
19038;SDS011;9652;49.014;12.052;2022-08-03T00:47:47;4.33;;;1.90;;
19038;SDS011;9652;49.014;12.052;2022-08-03T00:50:15;3.50;;;1.77;;
19038;SDS011;9652;49.014;12.052;2022-08-03T00:52:44;3.37;;;1.90;;
19038;SDS011;9652;49.014;12.052;2022-08-03T00:55:12;2.40;;;2.20;;
19038;SDS011;9652;49.014;12.052;2022-08-03T00:57:41;2.07;;;1.87;;
19038;SDS011;9652;49.014;12.052;2022-08-03T01:00:09;2.10;;;1.97;;
19038;SDS011;9652;49.014;12.052;2022-08-03T01:02:41;2.93;;;1.90;;
19038;SDS011;9652;49.014;12.052;2022-08-03T01:05:09;2.37;;;1.80;;
19038;SDS011;9652;49.014;12.052;2022-08-03T01:07:40;2.23;;;1.90;;
19038;SDS011;9652;49.014;12.052;2022-08-03T01:10:27;2.40;;;1.90;;
19038;SDS011;9652;49.014;12.052;2022-08-03T01:13:07;2.53;;;1.87;;
19038;SDS011;9652;49.014;12.052;2022-08-03T01:15:49;2.87;;;1.87;;
19038;SDS011;9652;49.014;12.052;2022-08-03T01:18:30;2.10;;;1.70;;
19038;SDS011;9652;49.014;12.052;2022-08-03T01:21:06;2.20;;;1.60;;
19038;SDS011;9652;49.014;12.052;2022-08-03T01:23:51;2.60;;;1.80;;
19038;SDS011;9652;49.014;12.052;2022-08-03T01:29:44;4.40;;;2.00;;
19038;SDS011;9652;49.014;12.052;2022-08-03T01:32:39;2.67;;;1.83;;
19038;SDS011;9652;49.014;12.052;2022-08-03T01:35:14;2.63;;;2.03;;
19038;SDS011;9652;49.014;12.052;2022-08-03T01:37:49;3.27;;;2.00;;
19038;SDS011;9652;49.014;12.052;2022-08-03T01:40:21;2.60;;;1.87;;
19038;SDS011;9652;49.014;12.052;2022-08-03T01:42:53;2.27;;;2.07;;
19038;SDS011;9652;49.014;12.052;2022-08-03T01:45:26;2.97;;;1.87;;
19038;SDS011;9652;49.014;12.052;2022-08-03T01:47:55;2.20;;;2.00;;
19038;SDS011;9652;49.014;12.052;2022-08-03T01:50:25;3.03;;;1.87;;
19038;SDS011;9652;49.014;12.052;2022-08-03T01:52:56;5.10;;;2.10;;
19038;SDS011;9652;49.014;12.052;2022-08-03T01:55:24;4.40;;;2.30;;
19038;SDS011;9652;49.014;12.052;2022-08-03T01:57:54;4.43;;;2.17;;
19038;SDS011;9652;49.014;12.052;2022-08-03T02:00:23;2.23;;;1.93;;
19038;SDS011;9652;49.014;12.052;2022-08-03T02:02:52;3.10;;;2.07;;
19038;SDS011;9652;49.014;12.052;2022-08-03T02:05:21;2.07;;;1.87;;
19038;SDS011;9652;49.014;12.052;2022-08-03T02:07:50;2.20;;;1.90;;
19038;SDS011;9652;49.014;12.052;2022-08-03T02:10:19;2.63;;;2.33;;
19038;SDS011;9652;49.014;12.052;2022-08-03T02:12:49;2.67;;;1.90;;
19038;SDS011;9652;49.014;12.052;2022-08-03T02:15:18;3.00;;;2.03;;
19038;SDS011;9652;49.014;12.052;2022-08-03T02:17:49;1.93;;;1.70;;
19038;SDS011;9652;49.014;12.052;2022-08-03T02:20:20;2.10;;;1.80;;
19038;SDS011;9652;49.014;12.052;2022-08-03T02:22:47;1.50;;;1.40;;
19038;SDS011;9652;49.014;12.052;2022-08-03T02:25:14;1.90;;;1.80;;
19038;SDS011;9652;49.014;12.052;2022-08-03T02:27:44;3.47;;;1.97;;
19038;SDS011;9652;49.014;12.052;2022-08-03T02:30:17;2.03;;;1.83;;
19038;SDS011;9652;49.014;12.052;2022-08-03T02:32:47;2.20;;;2.00;;
19038;SDS011;9652;49.014;12.052;2022-08-03T02:35:21;2.30;;;2.10;;
19038;SDS011;9652;49.014;12.052;2022-08-03T02:37:55;1.80;;;1.60;;
19038;SDS011;9652;49.014;12.052;2022-08-03T02:40:28;2.37;;;2.00;;
19038;SDS011;9652;49.014;12.052;2022-08-03T02:42:57;1.90;;;1.80;;
19038;SDS011;9652;49.014;12.052;2022-08-03T02:45:30;2.10;;;1.80;;
19038;SDS011;9652;49.014;12.052;2022-08-03T02:48:03;3.00;;;1.90;;
19038;SDS011;9652;49.014;12.052;2022-08-03T02:50:33;1.73;;;1.63;;
19038;SDS011;9652;49.014;12.052;2022-08-03T02:53:01;2.30;;;2.10;;
19038;SDS011;9652;49.014;12.052;2022-08-03T02:55:30;2.07;;;1.63;;
19038;SDS011;9652;49.014;12.052;2022-08-03T02:58:01;2.30;;;2.07;;
19038;SDS011;9652;49.014;12.052;2022-08-03T03:00:30;3.70;;;2.10;;
19038;SDS011;9652;49.014;12.052;2022-08-03T03:02:58;2.03;;;1.83;;
19038;SDS011;9652;49.014;12.052;2022-08-03T03:05:29;3.73;;;1.90;;
19038;SDS011;9652;49.014;12.052;2022-08-03T03:07:57;2.33;;;2.00;;
19038;SDS011;9652;49.014;12.052;2022-08-03T03:10:24;2.53;;;1.70;;
19038;SDS011;9652;49.014;12.052;2022-08-03T03:12:54;2.30;;;2.10;;
19038;SDS011;9652;49.014;12.052;2022-08-03T03:15:23;2.57;;;1.60;;
19038;SDS011;9652;49.014;12.052;2022-08-03T03:17:53;2.80;;;1.90;;
19038;SDS011;9652;49.014;12.052;2022-08-03T03:20:23;2.20;;;1.97;;
19038;SDS011;9652;49.014;12.052;2022-08-03T03:22:52;1.97;;;1.73;;
19038;SDS011;9652;49.014;12.052;2022-08-03T03:25:21;2.57;;;1.90;;
19038;SDS011;9652;49.014;12.052;2022-08-03T03:27:50;2.63;;;2.10;;
19038;SDS011;9652;49.014;12.052;2022-08-03T03:30:17;2.90;;;2.30;;
19038;SDS011;9652;49.014;12.052;2022-08-03T03:32:44;4.67;;;2.30;;
19038;SDS011;9652;49.014;12.052;2022-08-03T03:35:11;3.70;;;2.00;;
19038;SDS011;9652;49.014;12.052;2022-08-03T03:37:42;4.03;;;1.87;;
19038;SDS011;9652;49.014;12.052;2022-08-03T03:40:09;2.00;;;1.80;;
19038;SDS011;9652;49.014;12.052;2022-08-03T03:42:37;2.30;;;2.07;;
19038;SDS011;9652;49.014;12.052;2022-08-03T03:45:05;2.20;;;2.00;;
19038;SDS011;9652;49.014;12.052;2022-08-03T03:47:34;2.10;;;1.90;;
19038;SDS011;9652;49.014;12.052;2022-08-03T03:50:02;1.80;;;1.70;;
19038;SDS011;9652;49.014;12.052;2022-08-03T03:52:31;2.57;;;2.20;;
19038;SDS011;9652;49.014;12.052;2022-08-03T03:55:00;1.90;;;1.70;;
19038;SDS011;9652;49.014;12.052;2022-08-03T03:57:27;2.93;;;2.07;;
19038;SDS011;9652;49.014;12.052;2022-08-03T03:59:54;2.07;;;1.93;;
19038;SDS011;9652;49.014;12.052;2022-08-03T04:02:21;2.23;;;1.80;;
19038;SDS011;9652;49.014;12.052;2022-08-03T04:04:49;5.03;;;1.90;;
19038;SDS011;9652;49.014;12.052;2022-08-03T04:07:54;2.70;;;2.30;;
19038;SDS011;9652;49.014;12.052;2022-08-03T04:10:45;3.63;;;1.80;;
19038;SDS011;9652;49.014;12.052;2022-08-03T04:13:26;2.10;;;1.90;;
19038;SDS011;9652;49.014;12.052;2022-08-03T04:16:00;2.13;;;1.93;;
19038;SDS011;9652;49.014;12.052;2022-08-03T04:18:29;2.37;;;1.90;;
19038;SDS011;9652;49.014;12.052;2022-08-03T04:21:00;2.20;;;2.00;;
19038;SDS011;9652;49.014;12.052;2022-08-03T04:23:33;1.67;;;1.57;;
19038;SDS011;9652;49.014;12.052;2022-08-03T04:26:06;2.27;;;2.07;;
19038;SDS011;9652;49.014;12.052;2022-08-03T04:28:37;3.17;;;2.03;;
19038;SDS011;9652;49.014;12.052;2022-08-03T04:31:08;3.43;;;2.43;;
19038;SDS011;9652;49.014;12.052;2022-08-03T04:33:36;2.43;;;1.97;;
19038;SDS011;9652;49.014;12.052;2022-08-03T04:36:05;2.93;;;2.43;;
19038;SDS011;9652;49.014;12.052;2022-08-03T04:38:36;4.20;;;2.00;;
19038;SDS011;9652;49.014;12.052;2022-08-03T04:41:11;3.27;;;2.40;;
19038;SDS011;9652;49.014;12.052;2022-08-03T04:43:39;3.90;;;2.10;;
19038;SDS011;9652;49.014;12.052;2022-08-03T04:46:07;2.17;;;1.97;;
19038;SDS011;9652;49.014;12.052;2022-08-03T04:48:35;2.20;;;1.93;;
19038;SDS011;9652;49.014;12.052;2022-08-03T04:51:03;3.40;;;2.30;;
19038;SDS011;9652;49.014;12.052;2022-08-03T04:53:31;4.43;;;2.10;;
19038;SDS011;9652;49.014;12.052;2022-08-03T04:56:02;2.97;;;2.10;;
19038;SDS011;9652;49.014;12.052;2022-08-03T04:58:31;3.00;;;2.20;;
19038;SDS011;9652;49.014;12.052;2022-08-03T05:00:59;4.10;;;2.30;;
19038;SDS011;9652;49.014;12.052;2022-08-03T05:03:26;2.53;;;2.30;;
19038;SDS011;9652;49.014;12.052;2022-08-03T05:05:53;5.10;;;2.30;;
19038;SDS011;9652;49.014;12.052;2022-08-03T05:08:21;2.63;;;2.27;;
19038;SDS011;9652;49.014;12.052;2022-08-03T05:10:48;5.50;;;2.13;;
19038;SDS011;9652;49.014;12.052;2022-08-03T05:13:15;3.07;;;2.07;;
19038;SDS011;9652;49.014;12.052;2022-08-03T05:15:44;3.70;;;2.23;;
19038;SDS011;9652;49.014;12.052;2022-08-03T05:18:11;3.00;;;2.00;;
19038;SDS011;9652;49.014;12.052;2022-08-03T05:20:38;2.77;;;2.17;;
19038;SDS011;9652;49.014;12.052;2022-08-03T05:23:05;2.80;;;2.37;;
19038;SDS011;9652;49.014;12.052;2022-08-03T05:25:32;2.43;;;2.13;;
19038;SDS011;9652;49.014;12.052;2022-08-03T05:27:59;3.70;;;2.53;;
19038;SDS011;9652;49.014;12.052;2022-08-03T05:30:26;2.60;;;2.20;;
19038;SDS011;9652;49.014;12.052;2022-08-03T05:32:54;2.37;;;2.17;;
19038;SDS011;9652;49.014;12.052;2022-08-03T05:35:21;2.80;;;2.60;;
19038;SDS011;9652;49.014;12.052;2022-08-03T05:37:50;2.67;;;2.47;;
19038;SDS011;9652;49.014;12.052;2022-08-03T05:40:18;3.70;;;2.40;;
19038;SDS011;9652;49.014;12.052;2022-08-03T05:42:45;2.97;;;2.20;;
19038;SDS011;9652;49.014;12.052;2022-08-03T05:45:12;2.73;;;2.30;;
19038;SDS011;9652;49.014;12.052;2022-08-03T05:47:40;4.53;;;2.37;;
19038;SDS011;9652;49.014;12.052;2022-08-03T05:50:10;3.90;;;2.20;;
19038;SDS011;9652;49.014;12.052;2022-08-03T05:52:37;3.50;;;2.30;;
19038;SDS011;9652;49.014;12.052;2022-08-03T05:55:04;2.73;;;2.13;;
19038;SDS011;9652;49.014;12.052;2022-08-03T05:57:33;2.77;;;2.20;;
19038;SDS011;9652;49.014;12.052;2022-08-03T06:00:01;5.47;;;2.10;;
19038;SDS011;9652;49.014;12.052;2022-08-03T06:02:36;2.50;;;2.20;;
19038;SDS011;9652;49.014;12.052;2022-08-03T06:05:04;2.77;;;2.07;;
19038;SDS011;9652;49.014;12.052;2022-08-03T06:07:34;2.30;;;2.10;;
19038;SDS011;9652;49.014;12.052;2022-08-03T06:10:01;2.20;;;2.00;;
19038;SDS011;9652;49.014;12.052;2022-08-03T06:12:29;5.33;;;2.30;;
19038;SDS011;9652;49.014;12.052;2022-08-03T06:15:00;3.77;;;2.20;;
19038;SDS011;9652;49.014;12.052;2022-08-03T06:17:28;3.17;;;1.83;;
19038;SDS011;9652;49.014;12.052;2022-08-03T06:19:55;2.40;;;1.97;;
19038;SDS011;9652;49.014;12.052;2022-08-03T06:22:22;2.60;;;2.13;;
19038;SDS011;9652;49.014;12.052;2022-08-03T06:24:51;2.53;;;1.80;;
19038;SDS011;9652;49.014;12.052;2022-08-03T06:27:18;2.60;;;1.80;;
19038;SDS011;9652;49.014;12.052;2022-08-03T06:29:45;2.57;;;2.00;;
19038;SDS011;9652;49.014;12.052;2022-08-03T06:32:12;2.30;;;2.10;;
19038;SDS011;9652;49.014;12.052;2022-08-03T06:34:39;2.73;;;1.83;;
19038;SDS011;9652;49.014;12.052;2022-08-03T06:37:06;3.97;;;1.70;;
19038;SDS011;9652;49.014;12.052;2022-08-03T06:39:33;3.63;;;1.67;;
19038;SDS011;9652;49.014;12.052;2022-08-03T06:42:01;1.93;;;1.73;;
19038;SDS011;9652;49.014;12.052;2022-08-03T06:44:29;1.70;;;1.60;;
19038;SDS011;9652;49.014;12.052;2022-08-03T06:46:56;2.93;;;1.63;;
19038;SDS011;9652;49.014;12.052;2022-08-03T06:49:23;7.87;;;1.70;;
19038;SDS011;9652;49.014;12.052;2022-08-03T06:51:50;2.40;;;1.80;;
19038;SDS011;9652;49.014;12.052;2022-08-03T06:54:18;5.60;;;1.57;;
19038;SDS011;9652;49.014;12.052;2022-08-03T06:56:48;1.77;;;1.60;;
19038;SDS011;9652;49.014;12.052;2022-08-03T06:59:17;1.97;;;1.77;;
19038;SDS011;9652;49.014;12.052;2022-08-03T07:01:44;1.80;;;1.60;;
19038;SDS011;9652;49.014;12.052;2022-08-03T07:04:11;5.37;;;1.47;;
19038;SDS011;9652;49.014;12.052;2022-08-03T07:06:38;2.00;;;1.40;;
19038;SDS011;9652;49.014;12.052;2022-08-03T07:09:05;1.77;;;1.43;;
19038;SDS011;9652;49.014;12.052;2022-08-03T07:11:32;2.00;;;1.57;;
19038;SDS011;9652;49.014;12.052;2022-08-03T07:13:59;1.60;;;1.43;;
19038;SDS011;9652;49.014;12.052;2022-08-03T07:16:28;2.17;;;1.63;;
19038;SDS011;9652;49.014;12.052;2022-08-03T07:18:55;1.73;;;1.63;;
19038;SDS011;9652;49.014;12.052;2022-08-03T07:21:22;1.67;;;1.50;;
19038;SDS011;9652;49.014;12.052;2022-08-03T07:23:49;1.40;;;1.30;;
19038;SDS011;9652;49.014;12.052;2022-08-03T07:26:16;2.50;;;1.40;;
19038;SDS011;9652;49.014;12.052;2022-08-03T07:28:43;1.70;;;1.60;;
19038;SDS011;9652;49.014;12.052;2022-08-03T07:31:10;2.37;;;1.43;;
19038;SDS011;9652;49.014;12.052;2022-08-03T07:33:38;1.50;;;1.40;;
19038;SDS011;9652;49.014;12.052;2022-08-03T07:36:05;2.17;;;1.30;;
19038;SDS011;9652;49.014;12.052;2022-08-03T07:38:33;4.07;;;1.23;;
19038;SDS011;9652;49.014;12.052;2022-08-03T07:41:01;2.20;;;1.30;;
19038;SDS011;9652;49.014;12.052;2022-08-03T07:43:28;2.10;;;1.50;;
19038;SDS011;9652;49.014;12.052;2022-08-03T07:45:56;1.85;;;1.17;;
19038;SDS011;9652;49.014;12.052;2022-08-03T07:48:23;7.40;;;2.17;;
19038;SDS011;9652;49.014;12.052;2022-08-03T07:50:51;3.23;;;1.60;;
19038;SDS011;9652;49.014;12.052;2022-08-03T07:53:18;7.07;;;2.40;;
19038;SDS011;9652;49.014;12.052;2022-08-03T07:55:45;1.53;;;1.43;;
19038;SDS011;9652;49.014;12.052;2022-08-03T07:58:12;1.15;;;1.05;;
19038;SDS011;9652;49.014;12.052;2022-08-03T08:00:42;3.25;;;1.10;;
19038;SDS011;9652;49.014;12.052;2022-08-03T08:03:10;1.30;;;1.00;;
19038;SDS011;9652;49.014;12.052;2022-08-03T08:05:37;1.90;;;1.48;;
19038;SDS011;9652;49.014;12.052;2022-08-03T08:08:06;1.07;;;0.97;;
19038;SDS011;9652;49.014;12.052;2022-08-03T08:10:33;1.65;;;1.17;;
19038;SDS011;9652;49.014;12.052;2022-08-03T08:13:01;1.67;;;1.20;;
19038;SDS011;9652;49.014;12.052;2022-08-03T08:15:29;1.67;;;1.13;;
19038;SDS011;9652;49.014;12.052;2022-08-03T08:17:57;1.90;;;1.50;;
19038;SDS011;9652;49.014;12.052;2022-08-03T08:20:27;1.70;;;1.23;;
19038;SDS011;9652;49.014;12.052;2022-08-03T08:22:57;0.90;;;0.90;;
19038;SDS011;9652;49.014;12.052;2022-08-03T08:25:28;1.20;;;1.10;;
19038;SDS011;9652;49.014;12.052;2022-08-03T08:27:56;1.20;;;1.10;;
19038;SDS011;9652;49.014;12.052;2022-08-03T08:30:25;1.30;;;1.20;;
19038;SDS011;9652;49.014;12.052;2022-08-03T08:32:52;2.03;;;1.13;;
19038;SDS011;9652;49.014;12.052;2022-08-03T08:35:19;1.20;;;1.10;;
19038;SDS011;9652;49.014;12.052;2022-08-03T08:37:47;1.50;;;1.00;;
19038;SDS011;9652;49.014;12.052;2022-08-03T08:40:14;0.90;;;0.80;;
19038;SDS011;9652;49.014;12.052;2022-08-03T08:42:43;3.58;;;1.25;;
19038;SDS011;9652;49.014;12.052;2022-08-03T08:45:11;1.17;;;1.08;;
19038;SDS011;9652;49.014;12.052;2022-08-03T08:47:40;1.40;;;1.05;;
19038;SDS011;9652;49.014;12.052;2022-08-03T08:50:12;1.38;;;1.00;;
19038;SDS011;9652;49.014;12.052;2022-08-03T08:52:42;1.17;;;1.00;;
19038;SDS011;9652;49.014;12.052;2022-08-03T08:55:13;3.03;;;0.90;;
19038;SDS011;9652;49.014;12.052;2022-08-03T08:57:48;3.33;;;1.10;;
19038;SDS011;9652;49.014;12.052;2022-08-03T09:00:17;0.90;;;0.82;;
19038;SDS011;9652;49.014;12.052;2022-08-03T09:02:44;1.80;;;1.00;;
19038;SDS011;9652;49.014;12.052;2022-08-03T09:05:12;1.13;;;0.98;;
19038;SDS011;9652;49.014;12.052;2022-08-03T09:07:41;2.03;;;0.98;;
19038;SDS011;9652;49.014;12.052;2022-08-03T09:10:11;1.73;;;0.80;;
19038;SDS011;9652;49.014;12.052;2022-08-03T09:12:44;0.85;;;0.85;;
19038;SDS011;9652;49.014;12.052;2022-08-03T09:15:19;1.45;;;0.82;;
19038;SDS011;9652;49.014;12.052;2022-08-03T09:17:48;1.70;;;0.80;;
19038;SDS011;9652;49.014;12.052;2022-08-03T09:20:18;1.40;;;0.70;;
19038;SDS011;9652;49.014;12.052;2022-08-03T09:22:50;0.80;;;0.60;;
19038;SDS011;9652;49.014;12.052;2022-08-03T09:25:25;1.13;;;1.00;;
19038;SDS011;9652;49.014;12.052;2022-08-03T09:28:02;1.55;;;0.90;;
19038;SDS011;9652;49.014;12.052;2022-08-03T09:30:37;2.47;;;0.85;;
19038;SDS011;9652;49.014;12.052;2022-08-03T09:33:07;0.85;;;0.82;;
19038;SDS011;9652;49.014;12.052;2022-08-03T09:35:39;0.85;;;0.80;;
19038;SDS011;9652;49.014;12.052;2022-08-03T09:38:08;1.35;;;1.00;;
19038;SDS011;9652;49.014;12.052;2022-08-03T09:40:37;1.23;;;0.93;;
19038;SDS011;9652;49.014;12.052;2022-08-03T09:43:05;0.60;;;0.60;;
19038;SDS011;9652;49.014;12.052;2022-08-03T09:45:33;3.58;;;0.85;;
19038;SDS011;9652;49.014;12.052;2022-08-03T09:50:58;0.85;;;0.80;;
19038;SDS011;9652;49.014;12.052;2022-08-03T09:53:27;2.33;;;0.95;;
19038;SDS011;9652;49.014;12.052;2022-08-03T09:55:55;1.52;;;0.80;;
19038;SDS011;9652;49.014;12.052;2022-08-03T09:58:24;1.35;;;1.02;;
19038;SDS011;9652;49.014;12.052;2022-08-03T10:00:54;0.90;;;0.90;;
19038;SDS011;9652;49.014;12.052;2022-08-03T10:03:25;2.92;;;1.00;;
19038;SDS011;9652;49.014;12.052;2022-08-03T10:05:54;0.88;;;0.70;;
19038;SDS011;9652;49.014;12.052;2022-08-03T10:08:23;1.58;;;0.93;;
19038;SDS011;9652;49.014;12.052;2022-08-03T10:10:50;0.77;;;0.68;;
19038;SDS011;9652;49.014;12.052;2022-08-03T10:13:19;4.75;;;1.10;;
19038;SDS011;9652;49.014;12.052;2022-08-03T10:15:48;0.80;;;0.80;;
19038;SDS011;9652;49.014;12.052;2022-08-03T10:18:16;0.73;;;0.63;;
19038;SDS011;9652;49.014;12.052;2022-08-03T10:20:44;1.70;;;0.60;;
19038;SDS011;9652;49.014;12.052;2022-08-03T10:23:16;0.73;;;0.68;;
19038;SDS011;9652;49.014;12.052;2022-08-03T10:25:47;1.42;;;0.80;;
19038;SDS011;9652;49.014;12.052;2022-08-03T10:28:19;1.70;;;0.98;;
19038;SDS011;9652;49.014;12.052;2022-08-03T10:30:49;0.60;;;0.60;;
19038;SDS011;9652;49.014;12.052;2022-08-03T10:33:19;1.17;;;1.08;;
19038;SDS011;9652;49.014;12.052;2022-08-03T10:35:49;0.60;;;0.60;;
19038;SDS011;9652;49.014;12.052;2022-08-03T10:38:22;0.65;;;0.65;;
19038;SDS011;9652;49.014;12.052;2022-08-03T10:41:04;1.15;;;0.90;;
19038;SDS011;9652;49.014;12.052;2022-08-03T10:43:35;1.23;;;0.80;;
19038;SDS011;9652;49.014;12.052;2022-08-03T10:46:13;1.38;;;0.70;;
19038;SDS011;9652;49.014;12.052;2022-08-03T10:48:44;1.27;;;1.00;;
19038;SDS011;9652;49.014;12.052;2022-08-03T10:51:13;1.17;;;1.05;;
19038;SDS011;9652;49.014;12.052;2022-08-03T10:53:42;0.95;;;0.90;;
19038;SDS011;9652;49.014;12.052;2022-08-03T11:05:35;1.77;;;1.35;;
19038;SDS011;9652;49.014;12.052;2022-08-03T11:11:00;1.58;;;0.80;;
19038;SDS011;9652;49.014;12.052;2022-08-03T11:13:57;4.82;;;0.90;;
19038;SDS011;9652;49.014;12.052;2022-08-03T11:16:29;1.50;;;1.10;;
19038;SDS011;9652;49.014;12.052;2022-08-03T11:19:00;0.90;;;0.65;;
19038;SDS011;9652;49.014;12.052;2022-08-03T11:27:24;1.40;;;0.75;;
19038;SDS011;9652;49.014;12.052;2022-08-03T11:29:56;0.68;;;0.68;;
19038;SDS011;9652;49.014;12.052;2022-08-03T11:35:26;1.27;;;0.77;;
19038;SDS011;9652;49.014;12.052;2022-08-03T11:38:05;1.20;;;0.88;;
19038;SDS011;9652;49.014;12.052;2022-08-03T11:40:36;1.25;;;0.82;;
19038;SDS011;9652;49.014;12.052;2022-08-03T11:43:06;2.25;;;0.90;;
19038;SDS011;9652;49.014;12.052;2022-08-03T11:45:37;2.30;;;0.65;;
19038;SDS011;9652;49.014;12.052;2022-08-03T11:48:13;1.40;;;0.82;;
19038;SDS011;9652;49.014;12.052;2022-08-03T11:50:42;1.58;;;0.80;;
19038;SDS011;9652;49.014;12.052;2022-08-03T11:53:14;1.23;;;0.85;;
19038;SDS011;9652;49.014;12.052;2022-08-03T11:55:44;2.70;;;0.88;;
19038;SDS011;9652;49.014;12.052;2022-08-03T11:58:14;0.90;;;0.70;;
19038;SDS011;9652;49.014;12.052;2022-08-03T12:00:46;0.77;;;0.77;;
19038;SDS011;9652;49.014;12.052;2022-08-03T12:03:15;1.23;;;0.70;;
19038;SDS011;9652;49.014;12.052;2022-08-03T12:05:45;0.90;;;0.80;;
19038;SDS011;9652;49.014;12.052;2022-08-03T12:08:15;1.63;;;0.63;;
19038;SDS011;9652;49.014;12.052;2022-08-03T12:10:47;0.85;;;0.80;;
19038;SDS011;9652;49.014;12.052;2022-08-03T12:13:16;0.82;;;0.70;;
19038;SDS011;9652;49.014;12.052;2022-08-03T12:15:51;0.70;;;0.60;;
19038;SDS011;9652;49.014;12.052;2022-08-03T12:18:20;0.90;;;0.73;;
19038;SDS011;9652;49.014;12.052;2022-08-03T12:20:49;1.13;;;1.00;;
19038;SDS011;9652;49.014;12.052;2022-08-03T12:23:18;1.17;;;0.80;;
19038;SDS011;9652;49.014;12.052;2022-08-03T12:25:46;1.90;;;0.70;;
19038;SDS011;9652;49.014;12.052;2022-08-03T12:28:16;0.90;;;0.80;;
19038;SDS011;9652;49.014;12.052;2022-08-03T12:30:48;2.47;;;1.15;;
19038;SDS011;9652;49.014;12.052;2022-08-03T12:33:19;1.60;;;0.80;;
19038;SDS011;9652;49.014;12.052;2022-08-03T12:35:49;0.88;;;0.65;;
19038;SDS011;9652;49.014;12.052;2022-08-03T12:38:30;1.77;;;0.80;;
19038;SDS011;9652;49.014;12.052;2022-08-03T12:40:58;1.95;;;0.85;;
19038;SDS011;9652;49.014;12.052;2022-08-03T12:43:28;1.08;;;0.68;;
19038;SDS011;9652;49.014;12.052;2022-08-03T12:46:09;0.95;;;0.70;;
19038;SDS011;9652;49.014;12.052;2022-08-03T12:48:58;1.40;;;1.08;;
19038;SDS011;9652;49.014;12.052;2022-08-03T12:51:28;0.95;;;0.80;;
19038;SDS011;9652;49.014;12.052;2022-08-03T12:53:56;0.98;;;0.82;;
19038;SDS011;9652;49.014;12.052;2022-08-03T12:56:24;1.40;;;0.93;;
19038;SDS011;9652;49.014;12.052;2022-08-03T12:58:51;1.15;;;0.70;;
19038;SDS011;9652;49.014;12.052;2022-08-03T13:01:20;1.55;;;0.70;;
19038;SDS011;9652;49.014;12.052;2022-08-03T13:03:49;0.90;;;0.60;;
19038;SDS011;9652;49.014;12.052;2022-08-03T13:06:19;1.30;;;0.80;;
19038;SDS011;9652;49.014;12.052;2022-08-03T13:08:49;1.95;;;0.88;;
19038;SDS011;9652;49.014;12.052;2022-08-03T13:11:29;1.00;;;0.82;;
19038;SDS011;9652;49.014;12.052;2022-08-03T13:13:56;4.68;;;0.75;;
19038;SDS011;9652;49.014;12.052;2022-08-03T13:16:25;0.60;;;0.60;;
19038;SDS011;9652;49.014;12.052;2022-08-03T13:18:52;1.15;;;0.50;;
19038;SDS011;9652;49.014;12.052;2022-08-03T13:21:20;0.65;;;0.65;;
19038;SDS011;9652;49.014;12.052;2022-08-03T13:23:47;1.15;;;0.70;;
19038;SDS011;9652;49.014;12.052;2022-08-03T13:26:14;1.20;;;0.55;;
19038;SDS011;9652;49.014;12.052;2022-08-03T13:28:41;0.77;;;0.73;;
19038;SDS011;9652;49.014;12.052;2022-08-03T13:31:08;0.88;;;0.60;;
19038;SDS011;9652;49.014;12.052;2022-08-03T13:33:37;0.98;;;0.50;;
19038;SDS011;9652;49.014;12.052;2022-08-03T13:36:05;0.63;;;0.63;;
19038;SDS011;9652;49.014;12.052;2022-08-03T13:38:33;0.90;;;0.60;;
19038;SDS011;9652;49.014;12.052;2022-08-03T13:41:00;0.60;;;0.40;;
19038;SDS011;9652;49.014;12.052;2022-08-03T13:43:28;0.98;;;0.60;;
19038;SDS011;9652;49.014;12.052;2022-08-03T13:45:56;3.33;;;0.50;;
19038;SDS011;9652;49.014;12.052;2022-08-03T13:48:23;0.70;;;0.70;;
19038;SDS011;9652;49.014;12.052;2022-08-03T13:50:51;1.50;;;0.50;;
19038;SDS011;9652;49.014;12.052;2022-08-03T13:53:18;4.88;;;0.63;;
19038;SDS011;9652;49.014;12.052;2022-08-03T13:55:46;0.50;;;0.50;;
19038;SDS011;9652;49.014;12.052;2022-08-03T13:58:13;1.00;;;0.75;;
19038;SDS011;9652;49.014;12.052;2022-08-03T14:00:40;1.17;;;0.68;;
19038;SDS011;9652;49.014;12.052;2022-08-03T14:03:07;1.27;;;0.57;;
19038;SDS011;9652;49.014;12.052;2022-08-03T14:05:34;0.63;;;0.60;;
19038;SDS011;9652;49.014;12.052;2022-08-03T14:08:04;1.15;;;0.60;;
19038;SDS011;9652;49.014;12.052;2022-08-03T14:10:35;0.57;;;0.40;;
19038;SDS011;9652;49.014;12.052;2022-08-03T14:13:04;0.47;;;0.47;;
19038;SDS011;9652;49.014;12.052;2022-08-03T14:15:32;1.05;;;0.57;;
19038;SDS011;9652;49.014;12.052;2022-08-03T14:17:59;3.28;;;0.50;;
19038;SDS011;9652;49.014;12.052;2022-08-03T14:20:26;1.52;;;0.73;;
19038;SDS011;9652;49.014;12.052;2022-08-03T14:22:55;0.80;;;0.80;;
19038;SDS011;9652;49.014;12.052;2022-08-03T14:25:23;2.15;;;0.70;;
19038;SDS011;9652;49.014;12.052;2022-08-03T14:27:50;1.25;;;0.55;;
19038;SDS011;9652;49.014;12.052;2022-08-03T14:30:17;0.70;;;0.50;;
19038;SDS011;9652;49.014;12.052;2022-08-03T14:32:44;0.73;;;0.50;;
19038;SDS011;9652;49.014;12.052;2022-08-03T14:35:11;0.60;;;0.50;;
19038;SDS011;9652;49.014;12.052;2022-08-03T14:37:39;0.65;;;0.60;;
19038;SDS011;9652;49.014;12.052;2022-08-03T14:40:06;0.38;;;0.38;;
19038;SDS011;9652;49.014;12.052;2022-08-03T14:42:35;2.05;;;0.60;;
19038;SDS011;9652;49.014;12.052;2022-08-03T14:45:02;2.53;;;0.60;;
19038;SDS011;9652;49.014;12.052;2022-08-03T14:47:30;0.63;;;0.60;;
19038;SDS011;9652;49.014;12.052;2022-08-03T14:49:58;1.45;;;0.82;;
19038;SDS011;9652;49.014;12.052;2022-08-03T14:52:26;0.60;;;0.60;;
19038;SDS011;9652;49.014;12.052;2022-08-03T14:54:53;0.57;;;0.50;;
19038;SDS011;9652;49.014;12.052;2022-08-03T14:57:20;0.60;;;0.47;;
19038;SDS011;9652;49.014;12.052;2022-08-03T14:59:49;1.17;;;0.47;;
19038;SDS011;9652;49.014;12.052;2022-08-03T15:02:16;0.47;;;0.40;;
19038;SDS011;9652;49.014;12.052;2022-08-03T15:04:43;0.40;;;0.38;;
19038;SDS011;9652;49.014;12.052;2022-08-03T15:07:11;0.57;;;0.40;;
19038;SDS011;9652;49.014;12.052;2022-08-03T15:09:38;1.15;;;0.55;;
19038;SDS011;9652;49.014;12.052;2022-08-03T15:12:05;0.30;;;0.30;;
19038;SDS011;9652;49.014;12.052;2022-08-03T15:14:32;0.77;;;0.40;;
19038;SDS011;9652;49.014;12.052;2022-08-03T15:17:01;0.40;;;0.40;;
19038;SDS011;9652;49.014;12.052;2022-08-03T15:19:28;0.93;;;0.60;;
19038;SDS011;9652;49.014;12.052;2022-08-03T15:21:55;1.02;;;0.60;;
19038;SDS011;9652;49.014;12.052;2022-08-03T15:24:22;0.50;;;0.45;;
19038;SDS011;9652;49.014;12.052;2022-08-03T15:26:49;0.75;;;0.30;;
19038;SDS011;9652;49.014;12.052;2022-08-03T15:29:17;0.40;;;0.40;;